Time;durP1;ratioP1;P1;durP2;ratioP2;P2;SDS_P1;SDS_P2;PMS_P1;PMS_P2;Temp;Humidity;BMP_temperature;BMP_pressure;BME280_temperature;BME280_humidity;BME280_pressure;Samples;Min_cycle;Max_cycle;Signal;HPM_P1;HPM_P2
2023/06/21 00:00:25;;;;;;;;;;;;;;;19.84;nan;100144.66;5060521;28;19923;-79
2023/06/21 00:02:51;;;;;;;;;;;;;;;19.75;nan;100145.97;5075547;28;19917;-81
2023/06/21 00:08:19;;;;;;;;;;;;;;;19.61;nan;100145.25;5071606;28;19922;-81
2023/06/21 00:10:44;;;;;;;;;;;;;;;19.53;nan;100137.50;5081109;28;19916;-80
2023/06/21 00:13:09;;;;;;;;;;;;;;;19.52;nan;100143.88;5078019;28;20477;-81
2023/06/21 00:15:36;;;;;;;;;;;;;;;19.49;nan;100136.28;5055242;28;19939;-81
2023/06/21 00:18:02;;;;;;;;;;;;;;;19.46;nan;100142.09;5063029;28;19912;-82
2023/06/21 00:20:27;;;;;;;;;;;;;;;19.46;nan;100137.53;5067822;28;19988;-79
2023/06/21 00:22:55;;;;;;;;;;;;;;;19.46;nan;100140.22;5093489;28;19951;-83
2023/06/21 00:25:21;;;;;;;;;;;;;;;19.42;nan;100140.88;5084237;28;19958;-84
2023/06/21 00:27:46;;;;;;;;;;;;;;;19.40;nan;100137.59;5059045;28;19920;-81
2023/06/21 00:30:11;;;;;;;;;;;;;;;19.38;nan;100132.47;5076027;28;19912;-82
2023/06/21 00:32:37;;;;;;;;;;;;;;;19.33;nan;100150.22;5076093;28;20748;-80
2023/06/21 00:35:02;;;;;;;;;;;;;;;19.33;nan;100142.19;5060771;28;19998;-82
2023/06/21 00:37:28;;;;;;;;;;;;;;;19.31;nan;100135.19;5069320;28;20042;-82
2023/06/21 00:39:53;;;;;;;;;;;;;;;19.29;nan;100148.00;5057255;28;19912;-80
2023/06/21 00:42:18;;;;;;;;;;;;;;;19.29;nan;100148.00;5067122;28;20365;-81
2023/06/21 00:44:43;;;;;;;;;;;;;;;19.33;nan;100152.91;5050673;28;19913;-81
2023/06/21 00:47:09;;;;;;;;;;;;;;;19.36;nan;100153.31;5071537;28;19917;-81
2023/06/21 00:49:35;;;;;;;;;;;;;;;19.33;nan;100158.28;5075052;28;19918;-82
2023/06/21 00:52:00;;;;;;;;;;;;;;;19.35;nan;100158.88;5056279;28;19917;-81
2023/06/21 00:54:27;;;;;;;;;;;;;;;19.30;nan;100160.34;5074255;28;19950;-81
2023/06/21 00:56:53;;;;;;;;;;;;;;;19.29;nan;100168.63;5056500;28;19974;-81
2023/06/21 00:59:18;;;;;;;;;;;;;;;19.33;nan;100164.47;5074946;28;20212;-81
2023/06/21 01:01:44;;;;;;;;;;;;;;;19.38;nan;100161.97;5075545;28;19917;-82
2023/06/21 01:04:09;;;;;;;;;;;;;;;19.36;nan;100176.63;5074395;28;19923;-82
2023/06/21 01:06:40;;;;;;;;;;;;;;;19.33;nan;100180.56;5074601;28;19991;-81
2023/06/21 01:09:25;;;;;;;;;;;;;;;19.31;nan;100178.09;5057246;28;19920;-82
2023/06/21 01:11:53;;;;;;;;;;;;;;;19.29;nan;100179.34;5030210;28;20003;-81
2023/06/21 01:14:26;;;;;;;;;;;;;;;19.25;nan;100184.31;5071383;28;19947;-81
2023/06/21 01:16:51;;;;;;;;;;;;;;;19.21;nan;100204.56;5074054;28;19951;-82
2023/06/21 01:19:35;;;;;;;;;;;;;;;19.23;nan;100210.50;5074595;28;20365;-82
2023/06/21 01:22:07;;;;;;;;;;;;;;;19.21;nan;100214.44;5073819;28;19974;-81
2023/06/21 01:24:32;;;;;;;;;;;;;;;19.18;nan;100214.88;5073198;28;19916;-81
2023/06/21 01:27:04;;;;;;;;;;;;;;;19.19;nan;100206.63;5055275;28;19932;-82
2023/06/21 01:29:33;;;;;;;;;;;;;;;19.18;nan;100198.81;5054793;28;19919;-81
2023/06/21 01:31:59;;;;;;;;;;;;;;;19.16;nan;100169.53;5072145;28;20029;-82
2023/06/21 01:34:25;;;;;;;;;;;;;;;19.22;nan;100179.38;5072110;28;19919;-80
2023/06/21 01:36:50;;;;;;;;;;;;;;;19.26;nan;100182.47;5087615;28;20377;-82
2023/06/21 01:39:16;;;;;;;;;;;;;;;19.26;nan;100204.72;5073849;28;19916;-81
2023/06/21 01:41:41;;;;;;;;;;;;;;;19.24;nan;100192.59;5073144;28;20303;-80
2023/06/21 01:44:09;;;;;;;;;;;;;;;19.13;nan;100191.41;5072538;28;19912;-81
2023/06/21 01:46:34;;;;;;;;;;;;;;;19.06;nan;100182.59;5073286;28;19912;-82
2023/06/21 01:49:02;;;;;;;;;;;;;;;19.01;nan;100177.88;5077547;28;19915;-82
2023/06/21 01:51:27;;;;;;;;;;;;;;;19.02;nan;100176.00;5063608;28;19912;-82
2023/06/21 01:53:55;;;;;;;;;;;;;;;19.05;nan;100183.63;5055118;28;19971;-81
2023/06/21 01:56:21;;;;;;;;;;;;;;;19.05;nan;100176.41;5049450;28;19916;-81
2023/06/21 01:58:47;;;;;;;;;;;;;;;18.98;nan;100174.81;5049752;28;19913;-81
2023/06/21 02:01:12;;;;;;;;;;;;;;;18.96;nan;100184.94;5073013;28;19974;-81
2023/06/21 02:03:40;;;;;;;;;;;;;;;18.95;nan;100184.13;5073609;28;20009;-83
2023/06/21 02:06:07;;;;;;;;;;;;;;;18.89;nan;100168.88;5073361;28;19924;-81
2023/06/21 02:08:33;;;;;;;;;;;;;;;18.88;nan;100189.50;5055235;28;19917;-81
2023/06/21 02:11:00;;;;;;;;;;;;;;;18.92;nan;100183.72;5074184;28;19916;-82
2023/06/21 02:13:26;;;;;;;;;;;;;;;18.86;nan;100180.84;5058269;28;20481;-82
2023/06/21 02:15:51;;;;;;;;;;;;;;;18.83;nan;100175.94;5073337;28;19939;-80
2023/06/21 02:18:20;;;;;;;;;;;;;;;18.82;nan;100173.47;5071146;28;19930;-80
2023/06/21 02:20:47;;;;;;;;;;;;;;;18.77;nan;100198.22;5070435;28;19942;-81
2023/06/21 02:23:12;;;;;;;;;;;;;;;18.79;nan;100201.50;5044434;28;19978;-81
2023/06/21 02:25:37;;;;;;;;;;;;;;;18.84;nan;100199.00;5047568;28;19920;-80
2023/06/21 02:28:03;;;;;;;;;;;;;;;18.90;nan;100199.97;5068988;28;19923;-80
2023/06/21 02:30:29;;;;;;;;;;;;;;;18.91;nan;100209.69;5072012;28;19916;-82
2023/06/21 02:32:54;;;;;;;;;;;;;;;18.88;nan;100216.28;5070981;28;19950;-81
2023/06/21 02:35:19;;;;;;;;;;;;;;;18.85;nan;100215.88;5072203;28;20010;-81
2023/06/21 02:37:44;;;;;;;;;;;;;;;18.80;nan;100221.88;5072821;28;19954;-80
2023/06/21 02:40:10;;;;;;;;;;;;;;;18.85;nan;100229.28;5044416;28;20321;-81
2023/06/21 02:42:36;;;;;;;;;;;;;;;18.89;nan;100235.84;5070792;28;19917;-80
2023/06/21 02:45:01;;;;;;;;;;;;;;;18.93;nan;100247.00;5072322;28;19944;-81
2023/06/21 02:47:26;;;;;;;;;;;;;;;18.92;nan;100238.09;5072248;28;19916;-80
2023/06/21 02:49:52;;;;;;;;;;;;;;;18.91;nan;100257.91;5068919;28;19943;-80
2023/06/21 02:52:17;;;;;;;;;;;;;;;18.88;nan;100258.34;5071973;28;19916;-80
2023/06/21 02:54:42;;;;;;;;;;;;;;;18.87;nan;100256.69;5072623;28;19916;-81
2023/06/21 02:57:08;;;;;;;;;;;;;;;18.89;nan;100265.34;5069623;28;19917;-80
2023/06/21 02:59:35;;;;;;;;;;;;;;;18.89;nan;100260.78;5070725;28;20297;-80
2023/06/21 03:02:01;;;;;;;;;;;;;;;18.89;nan;100262.66;5070349;28;19913;-80
2023/06/21 03:04:26;;;;;;;;;;;;;;;18.85;nan;100264.94;5070394;28;20390;-80
2023/06/21 03:06:51;;;;;;;;;;;;;;;18.88;nan;100256.47;5071187;28;19917;-80
2023/06/21 03:09:16;;;;;;;;;;;;;;;18.93;nan;100260.38;5071819;28;19927;-80
2023/06/21 03:11:42;;;;;;;;;;;;;;;18.96;nan;100276.03;5055083;28;19916;-80
2023/06/21 03:14:07;;;;;;;;;;;;;;;18.95;nan;100266.31;5072107;28;20431;-80
2023/06/21 03:16:32;;;;;;;;;;;;;;;;;;5074657;28;19916;-80
2023/06/21 03:18:57;;;;;;;;;;;;;;;18.84;nan;100263.28;5055744;28;19917;-80
2023/06/21 03:21:22;;;;;;;;;;;;;;;18.84;nan;100273.19;5073080;28;20557;-80
2023/06/21 03:23:48;;;;;;;;;;;;;;;18.85;nan;100291.75;5055902;28;19913;-80
2023/06/21 03:26:13;;;;;;;;;;;;;;;18.84;nan;100284.72;5073806;28;19923;-79
2023/06/21 03:28:38;;;;;;;;;;;;;;;18.78;nan;100274.03;5057542;28;19923;-80
2023/06/21 03:31:03;;;;;;;;;;;;;;;;;;5062017;28;19920;-80
2023/06/21 03:33:28;;;;;;;;;;;;;;;18.71;nan;100300.81;5063607;28;19916;-80
2023/06/21 03:35:54;;;;;;;;;;;;;;;;;;5085977;28;19916;-80
2023/06/21 03:38:19;;;;;;;;;;;;;;;18.74;nan;100295.03;5076175;28;19919;-81
2023/06/21 03:40:45;;;;;;;;;;;;;;;18.81;nan;100313.81;5078494;28;19916;-81
2023/06/21 03:43:10;;;;;;;;;;;;;;;18.89;nan;100308.19;5060272;28;19913;-81
2023/06/21 03:45:35;;;;;;;;;;;;;;;18.96;nan;100318.91;5075951;28;20035;-80
2023/06/21 03:48:04;;;;;;;;;;;;;;;18.99;nan;100330.00;5048520;28;19917;-80
2023/06/21 03:50:29;;;;;;;;;;;;;;;19.06;nan;100341.53;5075898;28;19916;-80
2023/06/21 03:52:54;;;;;;;;;;;;;;;19.10;nan;100341.94;5074921;28;20552;-81
2023/06/21 03:55:19;;;;;;;;;;;;;;;19.15;nan;100328.72;5075499;28;19921;-80
2023/06/21 03:57:45;;;;;;;;;;;;;;;19.21;nan;100352.00;5074957;28;19916;-80
2023/06/21 04:00:11;;;;;;;;;;;;;;;19.28;nan;100360.84;5074770;28;19916;-80
2023/06/21 04:02:36;;;;;;;;;;;;;;;19.48;nan;100507.41;5074662;28;19923;-81
2023/06/21 04:05:01;;;;;;;;;;;;;;;19.61;nan;100510.03;5054318;28;19917;-80
2023/06/21 04:07:27;;;;;;;;;;;;;;;19.69;nan;100512.53;5074816;28;20432;-80
2023/06/21 04:09:52;;;;;;;;;;;;;;;19.76;nan;100517.03;5073056;28;19978;-81
2023/06/21 04:12:17;;;;;;;;;;;;;;;19.82;nan;100527.75;5073611;28;19919;-81
2023/06/21 04:14:42;;;;;;;;;;;;;;;19.88;nan;100528.78;5057502;28;19971;-82
2023/06/21 04:17:08;;;;;;;;;;;;;;;19.95;nan;100529.56;5054372;28;19924;-82
2023/06/21 04:19:33;;;;;;;;;;;;;;;20.01;nan;100536.75;5076028;28;19912;-81
2023/06/21 04:21:58;;;;;;;;;;;;;;;20.03;nan;100529.31;5072803;28;19912;-81
2023/06/21 04:24:23;;;;;;;;;;;;;;;20.04;nan;100525.56;5069901;28;19923;-81
2023/06/21 04:26:48;;;;;;;;;;;;;;;20.04;nan;100514.84;5073398;28;19931;-82
2023/06/21 04:29:16;;;;;;;;;;;;;;;20.04;nan;100514.84;5072917;28;19913;-81
2023/06/21 04:31:41;;;;;;;;;;;;;;;20.12;nan;100521.84;5073440;28;19943;-81
2023/06/21 04:34:06;;;;;;;;;;;;;;;20.18;nan;100520.16;5073862;28;19956;-82
2023/06/21 04:36:32;;;;;;;;;;;;;;;20.25;nan;100521.75;5055445;28;19999;-83
2023/06/21 04:38:57;;;;;;;;;;;;;;;20.31;nan;100510.16;5060683;28;19912;-80
2023/06/21 04:41:22;;;;;;;;;;;;;;;20.40;nan;100502.63;5075928;28;19912;-83
2023/06/21 04:43:47;;;;;;;;;;;;;;;;;;5074676;28;20003;-81
2023/06/21 04:46:12;;;;;;;;;;;;;;;20.59;nan;100361.19;5066333;28;19939;-84
2023/06/21 04:48:38;;;;;;;;;;;;;;;;;;5079762;28;19919;-83
2023/06/21 04:51:03;;;;;;;;;;;;;;;20.84;nan;100358.47;5078705;28;19912;-85
2023/06/21 04:53:29;;;;;;;;;;;;;;;20.87;nan;100347.25;5056600;28;19924;-85
2023/06/21 04:55:55;;;;;;;;;;;;;;;20.89;nan;100329.03;5072854;28;19959;-84
2023/06/21 04:58:20;;;;;;;;;;;;;;;20.81;nan;100307.00;5076527;28;20350;-83
2023/06/21 05:00:45;;;;;;;;;;;;;;;20.64;nan;100299.56;5058662;28;19927;-83
2023/06/21 05:03:10;;;;;;;;;;;;;;;20.50;nan;100427.78;5075677;28;20002;-83
2023/06/21 05:05:36;;;;;;;;;;;;;;;20.54;nan;100428.16;5075120;28;19916;-84
2023/06/21 05:08:01;;;;;;;;;;;;;;;20.40;nan;100422.06;5075073;28;20439;-84
2023/06/21 05:10:26;;;;;;;;;;;;;;;20.36;nan;100427.06;5074538;28;19913;-82
2023/06/21 05:12:51;;;;;;;;;;;;;;;20.28;nan;100413.06;5055275;28;19920;-84
2023/06/21 05:15:16;;;;;;;;;;;;;;;20.29;nan;100437.03;5073619;28;19978;-82
2023/06/21 05:17:42;;;;;;;;;;;;;;;20.34;nan;100436.38;5074488;28;19912;-82
2023/06/21 05:20:08;;;;;;;;;;;;;;;20.35;nan;100438.88;5073484;28;19920;-82
2023/06/21 05:22:34;;;;;;;;;;;;;;;20.34;nan;100439.88;5055840;28;19975;-83
2023/06/21 05:25:01;;;;;;;;;;;;;;;20.32;nan;100454.56;5066087;28;19913;-82
2023/06/21 05:27:27;;;;;;;;;;;;;;;20.34;nan;100473.97;5072648;28;19920;-81
2023/06/21 05:29:52;;;;;;;;;;;;;;;20.40;nan;100497.28;5046967;28;20027;-83
2023/06/21 05:32:17;;;;;;;;;;;;;;;20.47;nan;100513.34;5071292;28;19924;-82
2023/06/21 05:34:42;;;;;;;;;;;;;;;20.51;nan;100533.38;5054036;28;19999;-83
2023/06/21 05:37:07;;;;;;;;;;;;;;;20.53;nan;100533.97;5084945;28;19981;-83
2023/06/21 05:39:33;;;;;;;;;;;;;;;20.52;nan;100521.56;5072263;28;19991;-84
2023/06/21 05:41:58;;;;;;;;;;;;;;;20.53;nan;100520.53;5054224;28;20274;-84
2023/06/21 05:44:23;;;;;;;;;;;;;;;20.44;nan;100519.16;5071163;28;19917;-82
2023/06/21 05:46:48;;;;;;;;;;;;;;;20.43;nan;100534.47;5072894;28;20332;-81
2023/06/21 05:49:13;;;;;;;;;;;;;;;20.42;nan;100540.03;5072887;28;19962;-81
2023/06/21 05:51:38;;;;;;;;;;;;;;;20.47;nan;100542.88;5074088;28;20010;-81
2023/06/21 05:54:04;;;;;;;;;;;;;;;20.43;nan;100558.63;5063125;28;19970;-81
2023/06/21 05:56:31;;;;;;;;;;;;;;;20.49;nan;100556.94;5072871;28;19971;-81
2023/06/21 05:58:56;;;;;;;;;;;;;;;20.52;nan;100557.34;5059356;28;20386;-81
2023/06/21 06:01:21;;;;;;;;;;;;;;;20.63;nan;100550.47;5070796;28;19944;-81
2023/06/21 06:03:47;;;;;;;;;;;;;;;20.71;nan;100552.06;5072156;28;19917;-81
2023/06/21 06:06:15;;;;;;;;;;;;;;;20.76;nan;100550.38;5076559;28;20393;-81
2023/06/21 06:08:40;;;;;;;;;;;;;;;20.95;nan;100559.34;5058215;28;19916;-81
2023/06/21 06:11:05;;;;;;;;;;;;;;;21.27;nan;100561.13;5058600;28;19979;-81
2023/06/21 06:13:30;;;;;;;;;;;;;;;21.48;nan;100568.00;5057769;28;19920;-81
2023/06/21 06:15:56;;;;;;;;;;;;;;;21.42;nan;100567.81;5057375;28;19916;-81
2023/06/21 06:18:21;;;;;;;;;;;;;;;21.44;nan;100564.91;5069581;28;19999;-81
2023/06/21 06:20:46;;;;;;;;;;;;;;;21.62;nan;100570.31;5068851;28;19916;-82
2023/06/21 06:23:12;;;;;;;;;;;;;;;22.00;nan;100577.31;5049292;28;20388;-81
2023/06/21 06:25:37;;;;;;;;;;;;;;;22.43;nan;100587.16;5069800;28;19916;-82
2023/06/21 06:28:02;;;;;;;;;;;;;;;22.90;nan;100581.88;5064069;28;19974;-81
2023/06/21 06:30:27;;;;;;;;;;;;;;;23.17;nan;100581.50;5072239;28;19912;-81
2023/06/21 06:32:53;;;;;;;;;;;;;;;23.50;nan;100602.50;5070993;28;20374;-81
2023/06/21 06:35:18;;;;;;;;;;;;;;;23.86;nan;100605.16;5071432;28;19923;-81
2023/06/21 06:37:43;;;;;;;;;;;;;;;24.01;nan;100601.97;5054622;28;19951;-82
2023/06/21 06:40:08;;;;;;;;;;;;;;;24.14;nan;100598.97;5050363;28;20374;-83
2023/06/21 06:42:34;;;;;;;;;;;;;;;24.47;nan;100605.59;5064299;28;20221;-82
2023/06/21 06:44:59;;;;;;;;;;;;;;;24.67;nan;100597.84;5074928;28;19916;-82
2023/06/21 06:47:24;;;;;;;;;;;;;;;24.96;nan;100606.72;5071440;28;19920;-83
2023/06/21 06:49:49;;;;;;;;;;;;;;;25.26;nan;100610.19;5073528;28;20021;-82
2023/06/21 06:52:14;;;;;;;;;;;;;;;25.61;nan;100610.72;5069475;28;20263;-83
2023/06/21 06:54:40;;;;;;;;;;;;;;;26.18;nan;100622.31;5072236;28;19920;-83
2023/06/21 06:57:05;;;;;;;;;;;;;;;26.57;nan;100619.50;5057438;28;20006;-83
2023/06/21 06:59:30;;;;;;;;;;;;;;;26.73;nan;100626.72;5077251;28;19916;-83
2023/06/21 07:01:55;;;;;;;;;;;;;;;26.89;nan;100611.41;5049548;28;20451;-83
2023/06/21 07:04:21;;;;;;;;;;;;;;;26.98;nan;100609.88;5074875;28;19944;-83
2023/06/21 07:06:46;;;;;;;;;;;;;;;27.09;nan;100608.03;5074830;28;19927;-84
2023/06/21 07:09:11;;;;;;;;;;;;;;;27.28;nan;100613.91;5057199;28;19947;-84
2023/06/21 07:11:36;;;;;;;;;;;;;;;27.23;nan;100613.88;5074778;28;19912;-83
2023/06/21 07:14:02;;;;;;;;;;;;;;;26.92;nan;100615.50;5066605;28;19924;-84
2023/06/21 07:16:33;;;;;;;;;;;;;;;26.97;nan;100624.50;5055672;28;20439;-82
2023/06/21 07:18:58;;;;;;;;;;;;;;;26.81;nan;100618.09;5073568;28;19916;-83
2023/06/21 07:21:27;;;;;;;;;;;;;;;26.85;nan;100613.81;5070926;28;19923;-83
2023/06/21 07:23:52;;;;;;;;;;;;;;;26.76;nan;100617.25;5048782;28;20298;-84
2023/06/21 07:26:17;;;;;;;;;;;;;;;26.83;nan;100626.00;5046887;28;19912;-83
2023/06/21 07:28:42;;;;;;;;;;;;;;;26.60;nan;100619.00;5057039;28;19924;-82
2023/06/21 07:31:07;;;;;;;;;;;;;;;26.65;nan;100608.22;5074280;28;19919;-84
2023/06/21 07:33:32;;;;;;;;;;;;;;;26.84;nan;100606.75;5072973;28;20013;-83
2023/06/21 07:35:58;;;;;;;;;;;;;;;27.25;nan;100609.81;5074024;28;19922;-84
2023/06/21 07:38:23;;;;;;;;;;;;;;;27.14;nan;100613.50;5047583;28;19912;-83
2023/06/21 07:40:48;;;;;;;;;;;;;;;27.00;nan;100620.44;5074548;28;20147;-83
2023/06/21 07:43:13;;;;;;;;;;;;;;;27.24;nan;100616.31;5074066;28;19919;-83
2023/06/21 07:45:40;;;;;;;;;;;;;;;27.35;nan;100609.06;5073764;28;19912;-82
2023/06/21 07:48:05;;;;;;;;;;;;;;;27.68;nan;100612.53;5073208;28;19966;-83
2023/06/21 07:50:31;;;;;;;;;;;;;;;28.11;nan;100608.66;5067621;28;20394;-83
2023/06/21 07:52:56;;;;;;;;;;;;;;;28.66;nan;100603.66;5065337;28;19928;-82
2023/06/21 07:55:21;;;;;;;;;;;;;;;28.88;nan;100605.28;5054061;28;19916;-84
2023/06/21 07:57:47;;;;;;;;;;;;;;;29.32;nan;100604.72;5049984;28;19957;-84
2023/06/21 08:00:12;;;;;;;;;;;;;;;29.11;nan;100593.88;5070065;28;19917;-85
2023/06/21 08:02:38;;;;;;;;;;;;;;;28.86;nan;100593.84;5065952;28;19920;-83
2023/06/21 08:05:03;;;;;;;;;;;;;;;28.97;nan;100582.69;5064409;28;20293;-84
2023/06/21 08:07:28;;;;;;;;;;;;;;;29.29;nan;100584.31;5069378;28;20438;-83
2023/06/21 08:09:54;;;;;;;;;;;;;;;29.21;nan;100579.44;5052809;28;20086;-83
2023/06/21 08:12:19;;;;;;;;;;;;;;;29.45;nan;100581.56;5073811;28;20012;-84
2023/06/21 08:14:44;;;;;;;;;;;;;;;29.23;nan;100573.72;5053308;28;19982;-84
2023/06/21 08:17:09;;;;;;;;;;;;;;;28.61;nan;100583.78;5069005;28;20278;-83
2023/06/21 08:19:35;;;;;;;;;;;;;;;28.26;nan;100572.53;5069180;28;19956;-83
2023/06/21 08:22:00;;;;;;;;;;;;;;;27.87;nan;100574.88;5068513;28;20365;-83
2023/06/21 08:24:27;;;;;;;;;;;;;;;28.65;nan;100584.88;5070257;28;19917;-83
2023/06/21 08:26:52;;;;;;;;;;;;;;;29.43;nan;100590.00;5054599;28;20440;-85
2023/06/21 08:29:17;;;;;;;;;;;;;;;29.90;nan;100599.69;5051078;28;19920;-82
2023/06/21 08:31:42;;;;;;;;;;;;;;;30.21;nan;100607.72;5050088;28;19927;-84
2023/06/21 08:34:07;;;;;;;;;;;;;;;30.24;nan;100607.97;5070541;28;19921;-83
2023/06/21 08:36:32;;;;;;;;;;;;;;;30.54;nan;100614.38;5047973;28;19916;-83
2023/06/21 08:38:58;;;;;;;;;;;;;;;31.22;nan;100621.78;5069252;28;19916;-83
2023/06/21 08:41:24;;;;;;;;;;;;;;;30.73;nan;100624.63;5069873;28;20274;-82
2023/06/21 08:43:49;;;;;;;;;;;;;;;30.23;nan;100622.72;5074376;28;19924;-82
2023/06/21 08:46:15;;;;;;;;;;;;;;;29.97;nan;100618.50;5072252;28;19920;-83
2023/06/21 08:48:41;;;;;;;;;;;;;;;29.96;nan;100631.31;5056835;28;19916;-83
2023/06/21 08:51:06;;;;;;;;;;;;;;;30.11;nan;100627.69;5059142;28;19974;-82
2023/06/21 08:53:36;;;;;;;;;;;;;;;30.04;nan;100635.38;5072123;28;20071;-83
2023/06/21 08:56:03;;;;;;;;;;;;;;;29.42;nan;100643.69;5069614;28;20382;-82
2023/06/21 08:58:33;;;;;;;;;;;;;;;28.66;nan;100649.09;5046673;28;19952;-82
2023/06/21 09:01:00;;;;;;;;;;;;;;;28.03;nan;100644.53;5071157;28;20403;-82
2023/06/21 09:03:29;;;;;;;;;;;;;;;27.53;nan;100633.09;5054371;28;20205;-82
2023/06/21 09:06:03;;;;;;;;;;;;;;;27.16;nan;100646.63;5045478;28;20010;-84
2023/06/21 09:08:30;;;;;;;;;;;;;;;26.75;nan;100632.72;5051527;28;19958;-83
2023/06/21 09:10:56;;;;;;;;;;;;;;;26.56;nan;100637.69;5068885;28;19967;-83
2023/06/21 09:13:22;;;;;;;;;;;;;;;26.61;nan;100637.72;5064883;28;19924;-84
2023/06/21 09:15:48;;;;;;;;;;;;;;;26.46;nan;100638.38;5067059;28;20392;-85
2023/06/21 09:18:15;;;;;;;;;;;;;;;26.46;nan;100630.22;5051180;28;20565;-84
2023/06/21 09:20:41;;;;;;;;;;;;;;;26.34;nan;100626.00;5068950;28;20000;-84
2023/06/21 09:23:06;;;;;;;;;;;;;;;26.18;nan;100625.84;5048118;28;20011;-84
2023/06/21 09:25:32;;;;;;;;;;;;;;;25.95;nan;100632.31;5050218;28;19956;-82
2023/06/21 09:27:57;;;;;;;;;;;;;;;25.62;nan;100627.78;5045470;28;19924;-83
2023/06/21 09:30:22;;;;;;;;;;;;;;;25.44;nan;100631.59;5053985;28;19923;-83
2023/06/21 09:32:48;;;;;;;;;;;;;;;25.35;nan;100642.00;5054928;28;19959;-86
2023/06/21 09:35:14;;;;;;;;;;;;;;;25.31;nan;100643.56;5069320;28;19920;-83
2023/06/21 09:37:39;;;;;;;;;;;;;;;25.36;nan;100646.38;5052701;28;19955;-81
2023/06/21 09:40:05;;;;;;;;;;;;;;;25.40;nan;100643.97;5058323;28;20017;-83
2023/06/21 09:42:31;;;;;;;;;;;;;;;25.66;nan;100644.38;5074043;28;19924;-82
2023/06/21 09:44:56;;;;;;;;;;;;;;;26.17;nan;100658.59;5078780;28;19912;-84
2023/06/21 09:47:22;;;;;;;;;;;;;;;26.70;nan;100648.94;5061247;28;19988;-84
2023/06/21 09:49:47;;;;;;;;;;;;;;;27.11;nan;100660.16;5052776;28;19916;-83
2023/06/21 09:52:17;;;;;;;;;;;;;;;27.39;nan;100663.66;5051670;28;19916;-84
2023/06/21 09:54:43;;;;;;;;;;;;;;;27.43;nan;100660.16;5071373;28;20007;-84
2023/06/21 09:57:08;;;;;;;;;;;;;;;27.50;nan;100663.47;5069484;28;19958;-83
2023/06/21 09:59:39;;;;;;;;;;;;;;;27.59;nan;100655.66;5051496;28;20349;-81
2023/06/21 10:02:05;;;;;;;;;;;;;;;27.67;nan;100641.59;5067073;28;19928;-83
2023/06/21 10:04:38;;;;;;;;;;;;;;;27.68;nan;100645.94;5045165;28;19916;-84
2023/06/21 10:07:03;;;;;;;;;;;;;;;27.70;nan;100651.13;5064768;28;20414;-83
2023/06/21 10:09:34;;;;;;;;;;;;;;;27.68;nan;100658.72;5049527;28;19927;-83
2023/06/21 10:11:59;;;;;;;;;;;;;;;27.77;nan;100661.72;5047949;28;20159;-84
2023/06/21 10:14:26;;;;;;;;;;;;;;;27.52;nan;100661.31;5048303;28;20396;-83
2023/06/21 10:16:53;;;;;;;;;;;;;;;27.37;nan;100676.72;5068280;28;19920;-84
2023/06/21 10:19:20;;;;;;;;;;;;;;;27.37;nan;100663.94;5050948;28;19931;-82
2023/06/21 10:21:46;;;;;;;;;;;;;;;27.42;nan;100658.53;5051851;28;20004;-83
2023/06/21 10:24:13;;;;;;;;;;;;;;;27.51;nan;100650.72;5052621;28;19959;-83
2023/06/21 10:26:38;;;;;;;;;;;;;;;27.59;nan;100652.94;5070749;28;19923;-83
2023/06/21 10:29:04;;;;;;;;;;;;;;;27.60;nan;100651.88;5053710;28;19916;-85
2023/06/21 10:31:30;;;;;;;;;;;;;;;27.68;nan;100651.38;5072826;28;20030;-83
2023/06/21 10:33:56;;;;;;;;;;;;;;;27.67;nan;100665.22;5066786;28;19924;-82
2023/06/21 10:36:25;;;;;;;;;;;;;;;27.56;nan;100658.91;5077168;28;19967;-83
2023/06/21 10:38:53;;;;;;;;;;;;;;;27.49;nan;100652.88;5074789;28;19917;-84
2023/06/21 10:41:19;;;;;;;;;;;;;;;27.37;nan;100657.69;5053225;28;20313;-83
2023/06/21 10:43:44;;;;;;;;;;;;;;;27.24;nan;100662.47;5068094;28;19924;-84
2023/06/21 10:46:10;;;;;;;;;;;;;;;27.43;nan;100664.78;5068721;28;20354;-83
2023/06/21 10:48:35;;;;;;;;;;;;;;;27.64;nan;100654.88;5052491;28;20293;-82
2023/06/21 10:51:02;;;;;;;;;;;;;;;27.73;nan;100653.31;5068812;28;19966;-83
2023/06/21 10:53:29;;;;;;;;;;;;;;;27.83;nan;100663.44;5074224;28;20430;-84
2023/06/21 10:55:54;;;;;;;;;;;;;;;27.87;nan;100661.84;5066049;28;20286;-84
2023/06/21 10:58:22;;;;;;;;;;;;;;;27.98;nan;100666.22;5066091;28;19916;-83
2023/06/21 11:00:50;;;;;;;;;;;;;;;27.80;nan;100655.78;5075202;28;19912;-83
2023/06/21 11:03:16;;;;;;;;;;;;;;;28.03;nan;100652.69;5055792;28;19920;-83
2023/06/21 11:05:41;;;;;;;;;;;;;;;28.39;nan;100658.25;5055199;28;20273;-83
2023/06/21 11:08:09;;;;;;;;;;;;;;;28.72;nan;100665.16;5050251;28;19916;-82
2023/06/21 11:10:40;;;;;;;;;;;;;;;29.02;nan;100655.38;5066887;28;19917;-81
2023/06/21 11:13:05;;;;;;;;;;;;;;;29.19;nan;100660.59;5071639;28;19925;-84
2023/06/21 11:15:31;;;;;;;;;;;;;;;29.23;nan;100658.97;5071288;28;20362;-84
2023/06/21 11:17:56;;;;;;;;;;;;;;;29.52;nan;100663.84;5072580;28;19917;-82
2023/06/21 11:20:25;;;;;;;;;;;;;;;29.89;nan;100658.06;5053558;28;19924;-83
2023/06/21 11:22:54;;;;;;;;;;;;;;;30.08;nan;100655.50;5066433;28;20015;-84
2023/06/21 11:25:19;;;;;;;;;;;;;;;29.91;nan;100666.75;5052563;28;19955;-84
2023/06/21 11:28:04;;;;;;;;;;;;;;;29.60;nan;100668.72;5045265;28;19948;-84
2023/06/21 11:30:31;;;;;;;;;;;;;;;29.37;nan;100660.03;5070597;28;19927;-82
2023/06/21 11:32:56;;;;;;;;;;;;;;;29.38;nan;100667.09;5049230;28;19921;-84
2023/06/21 11:35:35;;;;;;;;;;;;;;;29.85;nan;100665.16;5037433;28;1077080;-83
2023/06/21 11:38:00;;;;;;;;;;;;;;;30.84;nan;100678.06;5054968;28;20007;-85
2023/06/21 11:40:26;;;;;;;;;;;;;;;31.71;nan;100677.34;5046747;28;20077;-84
2023/06/21 11:42:54;;;;;;;;;;;;;;;32.33;nan;100675.53;5069662;28;19920;-83
2023/06/21 11:45:32;;;;;;;;;;;;;;;32.34;nan;100673.59;5069785;28;19931;-83
2023/06/21 11:47:58;;;;;;;;;;;;;;;31.93;nan;100674.91;5052573;28;19916;-81
2023/06/21 11:50:30;;;;;;;;;;;;;;;32.00;nan;100674.59;5067007;28;19923;-80
2023/06/21 11:52:55;;;;;;;;;;;;;;;32.21;nan;100677.09;5051584;28;19931;-83
2023/06/21 11:55:21;;;;;;;;;;;;;;;32.27;nan;100679.44;5071930;28;20309;-82
2023/06/21 11:57:46;;;;;;;;;;;;;;;32.58;nan;100685.38;5071524;28;20007;-82
2023/06/21 12:00:12;;;;;;;;;;;;;;;32.68;nan;100687.13;5072497;28;19912;-86
2023/06/21 12:02:37;;;;;;;;;;;;;;;33.13;nan;100682.09;5074433;28;19955;-83
2023/06/21 12:05:02;;;;;;;;;;;;;;;33.48;nan;100674.34;5073377;28;20314;-84
2023/06/21 12:07:27;;;;;;;;;;;;;;;34.35;nan;100683.66;5073759;28;19912;-83
2023/06/21 12:09:52;;;;;;;;;;;;;;;35.19;nan;100690.50;5073421;28;19987;-83
2023/06/21 12:12:18;;;;;;;;;;;;;;;36.08;nan;100685.09;5071970;28;19913;-81
2023/06/21 12:14:43;;;;;;;;;;;;;;;36.08;nan;100683.16;5073376;28;19924;-83
2023/06/21 12:17:14;;;;;;;;;;;;;;;36.15;nan;100691.78;5065266;28;19919;-84
2023/06/21 12:19:39;;;;;;;;;;;;;;;36.17;nan;100683.22;5055956;28;19912;-83
2023/06/21 12:22:04;;;;;;;;;;;;;;;35.43;nan;100678.34;5061968;28;20368;-83
2023/06/21 12:24:30;;;;;;;;;;;;;;;34.26;nan;100689.03;5049941;28;19920;-83
2023/06/21 12:26:57;;;;;;;;;;;;;;;34.22;nan;100684.47;5069303;28;19951;-83
2023/06/21 12:29:22;;;;;;;;;;;;;;;34.35;nan;100683.66;5053339;28;19950;-83
2023/06/21 12:31:48;;;;;;;;;;;;;;;34.46;nan;100690.50;5073301;28;20442;-83
2023/06/21 12:34:15;;;;;;;;;;;;;;;34.45;nan;100690.84;5054437;28;19917;-84
2023/06/21 12:36:40;;;;;;;;;;;;;;;34.53;nan;100684.59;5053231;28;20003;-83
2023/06/21 12:39:07;;;;;;;;;;;;;;;34.43;nan;100696.63;5075516;28;20065;-83
2023/06/21 12:41:33;;;;;;;;;;;;;;;34.06;nan;100689.41;5075462;28;19919;-83
2023/06/21 12:43:59;;;;;;;;;;;;;;;33.68;nan;100692.38;5086511;28;19927;-82
2023/06/21 12:46:25;;;;;;;;;;;;;;;33.52;nan;100683.59;5061148;28;20003;-83
2023/06/21 12:48:51;;;;;;;;;;;;;;;33.51;nan;100676.47;5064790;28;19951;-83
2023/06/21 12:51:23;;;;;;;;;;;;;;;33.70;nan;100676.41;5058884;28;19938;-83
2023/06/21 12:53:53;;;;;;;;;;;;;;;33.64;nan;100672.16;5055183;28;19948;-83
2023/06/21 12:56:19;;;;;;;;;;;;;;;33.43;nan;100672.50;5079868;28;19920;-82